Jomarca Helipad

BR-2396 · São Paulo, 巴西

罗盘
风向 的 风向 310° Jomarca Helipad 2/12
风: 10 kt, 3 beaufort

3 kt

9 kt
改变
0 ft 1.000 2.000 3.000 4.000 5.000
CAVOK
METAR SBGR 241600Z 31010KT CAVOK 30/14 Q1017

METAR Jomarca Helipad - BR-2396

Jomarca Helipad是,巴西中的直升机场。 该机场位于纬度-23,46740和经度-46,48592。 该机场有一条跑道: 2/12. 这个机场没有ICAO代码,我们使用BR-2396作为参考。 机场在Curitiba FIR中。

该航空气象观测是针对Guarulhos - Governador André Franco Montoro International Airport在2024年4月24日 13:00, 当地时间进行的。

机场观察

风向为310°,速度为10 kt。

天气为CAVOK。这意味着在5.000 ft或MSA(最低安全高度)以下(以较高者为准)以下没有云。这也意味着没有观测到积雨云或高耸的积云,可见度为10 km 或者更多或更高。此外,不会有雾,降雨或其他重要天气。

温度和风寒是30 °C。 露点为14 °C,相对湿度为38%。 海平面上的气压为1017 hPa (QNH)。

白天

今天,太阳从06:23升起,在17:44降落。 这适用于Jomarca Helipad,世界夏令时可能有所不同。 当地时间与世界标准时间之间的时差为-3 小时。 夏令时目前正在进行中。

公司介绍

我们没有关于这个机场的公司信息。

体会

到Vliegles.nl去找飞行课程,跳伞和其他飞行体验。 浏览页面,了解Jomarca Helipad附近所有可用的活动。 你也可以使用搜索功能来寻找你所在地附近的特定飞行课程、跳伞或其他飞行体验。

跑道

Id 标题 侧风 逆风 侧风 %
2/12 020°-200° 9 kt 3 kt 94 %

逆风成分最大的方向会被突出显示,并用于横风计算。 这并不一定意味着这个方向在使用。

温度 & 天气

温度 30 °C
露点 14 °C
相对湿度 38%
Kp-index 0 (0-9)

白天

日出
06:23
中午
12:03
日落
17:44 (4:40)

小工具

你想在你的网站上有一个关于Jomarca Helipad的当前航空天气(METAR)的小部件吗?

显示HTML代码
报告变更